createdAt,value
2023-02-15T00:00:57.041Z,13.8
2023-02-15T00:10:58.609Z,13.6
2023-02-15T00:21:00.864Z,13.6
2023-02-15T00:31:02.731Z,13.5
2023-02-15T00:41:05.318Z,13.7
2023-02-15T00:51:07.576Z,13.4
2023-02-15T01:01:09.464Z,13.4
2023-02-15T01:11:12.183Z,13.5
2023-02-15T01:21:14.353Z,13.4
2023-02-15T01:31:16.795Z,13.5
2023-02-15T01:41:18.944Z,13.4
2023-02-15T01:51:21.264Z,13.4
2023-02-15T02:01:23.439Z,13.4
2023-02-15T02:11:25.560Z,13.6
2023-02-15T02:21:27.881Z,13.6
2023-02-15T02:31:30.308Z,13.4
2023-02-15T02:41:32.243Z,13.3
2023-02-15T02:51:34.579Z,13.4
2023-02-15T03:10:10.197Z,13.4
2023-02-15T03:20:11.906Z,13.4
2023-02-15T03:30:13.642Z,13.5
2023-02-15T03:40:15.335Z,13.5
2023-02-15T03:50:17.124Z,13.4
2023-02-15T04:00:18.801Z,13.5
2023-02-15T04:10:21.730Z,13.6
2023-02-15T04:20:24.740Z,13.5
2023-02-15T04:30:27.607Z,13.5
2023-02-15T04:40:30.485Z,13.5
2023-02-15T04:50:33.528Z,13.6
2023-02-15T05:00:36.275Z,13.5
2023-02-15T05:10:38.683Z,13.4
2023-02-15T05:20:41.084Z,13.6
2023-02-15T05:30:43.729Z,13.5
2023-02-15T05:40:45.984Z,13.4
2023-02-15T05:50:48.441Z,13.6
2023-02-15T06:00:50.856Z,13.5
2023-02-15T06:10:53.625Z,13.4
2023-02-15T06:20:55.976Z,13.6
2023-02-15T06:30:58.765Z,13.6
2023-02-15T06:41:01.313Z,13.7
2023-02-15T06:51:04.299Z,13.6
2023-02-15T07:01:06.966Z,13.7
2023-02-15T07:11:10.881Z,14.1
2023-02-15T07:21:18.319Z,14
2023-02-15T07:31:27.552Z,14.2
2023-02-15T07:41:37.275Z,14
2023-02-15T07:51:46.577Z,13.1
2023-02-15T08:01:54.446Z,14.7
2023-02-15T08:12:02.542Z,14.4
2023-02-15T08:22:09.910Z,14.6
2023-02-15T08:32:17.616Z,14.6
2023-02-15T08:42:23.195Z,15.1
2023-02-15T08:52:27.292Z,14.8
2023-02-15T09:10:14.563Z,15
2023-02-15T09:29:29.495Z,14.8
2023-02-15T09:39:35.453Z,15.1
2023-02-15T09:49:42.500Z,14.7
2023-02-15T09:59:50.025Z,14.8
2023-02-15T10:09:57.950Z,14.8
2023-02-15T10:20:05.719Z,15
2023-02-15T10:30:15.141Z,15.2
2023-02-15T10:40:25.639Z,14.9
2023-02-15T10:50:34.986Z,15.2
2023-02-15T11:00:44.791Z,15.8
2023-02-15T11:10:54.395Z,15.1
2023-02-15T11:21:04.119Z,15.1
2023-02-15T11:31:08.745Z,15.6
2023-02-15T11:41:16.172Z,15.6
2023-02-15T11:51:24.693Z,15.8
2023-02-15T12:01:29.043Z,16.6
2023-02-15T12:11:31.729Z,15.8
2023-02-15T12:21:35.827Z,15.7
2023-02-15T12:31:38.554Z,16.1
2023-02-15T12:41:38.538Z,15.9
2023-02-15T12:51:43.140Z,15.9
2023-02-15T13:01:42.220Z,15.2
2023-02-15T13:11:44.810Z,15.9
2023-02-15T13:21:46.728Z,15.8
2023-02-15T13:31:49.192Z,15.8
2023-02-15T13:41:51.366Z,15.8
2023-02-15T13:51:53.712Z,15.9
2023-02-15T14:01:55.953Z,15.6
2023-02-15T14:11:58.387Z,15.7
2023-02-15T14:22:00.708Z,15.6
2023-02-15T14:32:03.093Z,15.5
2023-02-15T14:42:04.641Z,15.6
2023-02-15T14:52:06.489Z,15.1
2023-02-15T15:10:10.808Z,15.3
2023-02-15T15:20:10.304Z,14.9
2023-02-15T15:30:10.408Z,14.8
2023-02-15T15:40:11.808Z,15.1
2023-02-15T15:50:13.138Z,14.9
2023-02-15T16:00:13.874Z,14.6
2023-02-15T16:10:16.622Z,14.8
2023-02-15T16:20:19.110Z,14.8
2023-02-15T16:30:21.676Z,14.3
2023-02-15T16:40:23.232Z,14.4
2023-02-15T16:50:25.624Z,14.3
2023-02-15T17:00:25.776Z,14.3
2023-02-15T17:10:26.259Z,14.8
2023-02-15T17:20:25.953Z,14.5
2023-02-15T17:30:26.668Z,14
2023-02-15T17:40:26.150Z,14
2023-02-15T17:50:26.250Z,14.1
2023-02-15T18:00:24.931Z,13.9
2023-02-15T18:10:25.509Z,13.8
2023-02-15T18:20:25.077Z,13.9
2023-02-15T18:30:24.950Z,14.1
2023-02-15T18:40:24.671Z,13.9
2023-02-15T18:50:24.128Z,13.8
2023-02-15T19:00:24.305Z,14.2
2023-02-15T19:10:24.046Z,13.8
2023-02-15T19:20:23.797Z,13.8
2023-02-15T19:30:24.360Z,13.9
2023-02-15T19:40:24.247Z,13.8
2023-02-15T19:50:24.402Z,13.7
2023-02-15T20:00:23.161Z,13.7
2023-02-15T20:10:23.683Z,13.8
2023-02-15T20:20:23.850Z,13.7
2023-02-15T20:30:24.679Z,13.6
2023-02-15T20:40:24.241Z,13.9
2023-02-15T20:50:25.251Z,13.8
2023-02-15T21:09:07.909Z,13.7
2023-02-15T21:19:08.341Z,13.6
2023-02-15T21:29:09.373Z,13.6
2023-02-15T21:39:11.792Z,13.3
2023-02-15T21:49:11.314Z,13.5
2023-02-15T21:59:12.390Z,13.2
2023-02-15T22:09:13.057Z,13.6
2023-02-15T22:19:12.303Z,13.4
2023-02-15T22:29:12.435Z,13.1
2023-02-15T22:39:11.380Z,13.3
2023-02-15T22:49:11.109Z,13.4
2023-02-15T22:59:10.757Z,13.2
2023-02-15T23:09:10.590Z,13
2023-02-15T23:19:10.377Z,13.2
2023-02-15T23:29:09.721Z,13.1
2023-02-15T23:39:10.056Z,12.8
2023-02-15T23:49:10.037Z,13
2023-02-15T23:59:08.881Z,13.1
